Time;durP1;ratioP1;P1;durP2;ratioP2;P2;SDS_P1;SDS_P2;PMS_P1;PMS_P2;Temp;Humidity;BMP_temperature;BMP_pressure;BME280_temperature;BME280_humidity;BME280_pressure;Samples;Min_cycle;Max_cycle;Signal;HPM_P1;HPM_P2
2024/03/27 02:28:23;;;;;;;3.22;1.70;;;;;;;6.61;63.31;90221.72;2033387;70;20163;-72
2024/03/27 02:30:49;;;;;;;3.05;1.70;;;;;;;6.60;63.50;90223.09;2032676;70;20160;-71
2024/03/27 02:33:15;;;;;;;3.65;1.90;;;;;;;6.15;64.91;90201.22;2033428;70;20175;-72
2024/03/27 02:35:40;;;;;;;2.97;1.70;;;;;;;6.34;64.90;90200.50;2034058;70;20156;-73
2024/03/27 02:38:06;;;;;;;8.48;2.13;;;;;;;6.09;64.75;90194.06;2034063;70;20191;-72
2024/03/27 02:40:32;;;;;;;3.95;1.90;;;;;;;6.21;65.13;90185.38;2033829;70;20528;-73
2024/03/27 02:42:57;;;;;;;4.50;1.70;;;;;;;6.43;64.37;90179.88;2034005;70;20164;-72
2024/03/27 02:45:23;;;;;;;5.40;1.95;;;;;;;6.38;63.81;90169.91;2034528;70;20176;-72
2024/03/27 02:47:48;;;;;;;2.83;1.90;;;;;;;5.85;66.50;90173.56;2034496;70;20663;-73
2024/03/27 02:50:14;;;;;;;3.72;2.00;;;;;;;6.10;66.22;90161.25;2034691;70;20212;-73
2024/03/27 02:52:40;;;;;;;6.18;2.00;;;;;;;6.25;65.65;90170.84;2034831;70;20239;-73
2024/03/27 02:55:05;;;;;;;2.35;1.60;;;;;;;6.35;63.44;90174.00;2034492;70;20152;-71
2024/03/27 02:57:31;;;;;;;3.25;1.70;;;;;;;6.37;64.33;90174.09;2034543;70;20168;-72
2024/03/27 02:59:57;;;;;;;3.15;1.50;;;;;;;6.38;65.37;90164.34;2034567;70;20665;-73
2024/03/27 03:02:22;;;;;;;3.08;1.40;;;;;;;6.42;62.80;90158.19;2034887;70;20552;-73
2024/03/27 03:04:48;;;;;;;2.30;1.50;;;;;;;6.40;64.18;90158.09;2034421;70;20148;-73
2024/03/27 03:07:13;;;;;;;2.30;1.55;;;;;;;6.44;64.48;90163.81;2034613;70;20155;-73
2024/03/27 03:09:39;;;;;;;4.18;1.58;;;;;;;6.44;64.21;90166.63;2034758;70;20156;-73
2024/03/27 03:12:05;;;;;;;2.58;1.73;;;;;;;6.41;64.40;90153.94;2034095;70;20608;-73
2024/03/27 03:14:30;;;;;;;2.65;1.55;;;;;;;6.40;63.59;90161.59;2030725;70;20171;-74
2024/03/27 03:16:56;;;;;;;3.85;1.63;;;;;;;6.36;63.89;90167.75;2034761;70;20223;-73
2024/03/27 03:19:22;;;;;;;4.43;1.33;;;;;;;6.30;64.78;90178.72;2035099;70;20155;-73
2024/03/27 03:21:47;;;;;;;3.40;1.83;;;;;;;5.98;65.82;90181.06;2034861;70;20148;-73
2024/03/27 03:24:13;;;;;;;2.35;1.38;;;;;;;6.27;64.57;90171.63;2031218;70;20151;-73
2024/03/27 03:26:39;;;;;;;4.15;1.63;;;;;;;6.32;63.69;90178.06;2034277;70;20152;-73
2024/03/27 03:29:04;;;;;;;5.18;1.70;;;;;;;5.94;65.81;90169.03;2034640;70;20585;-73
2024/03/27 03:31:30;;;;;;;2.30;1.60;;;;;;;6.01;65.13;90170.69;2031213;70;20518;-73
2024/03/27 03:33:56;;;;;;;5.75;1.60;;;;;;;6.18;64.03;90167.09;2031168;70;20148;-73
2024/03/27 03:36:22;;;;;;;3.15;1.67;;;;;;;6.25;63.96;90160.38;2034797;70;20696;-73
2024/03/27 03:38:48;;;;;;;2.25;1.48;;;;;;;6.08;65.13;90142.31;2034630;70;20710;-73
2024/03/27 03:41:13;;;;;;;1.70;1.30;;;;;;;5.82;65.46;90142.09;2034545;70;20251;-73
2024/03/27 03:43:39;;;;;;;4.03;1.90;;;;;;;5.77;67.16;90126.53;2034350;70;20557;-72
2024/03/27 03:46:05;;;;;;;2.03;1.60;;;;;;;5.85;66.43;90112.84;2034670;70;20144;-73
2024/03/27 03:48:31;;;;;;;3.08;2.00;;;;;;;5.96;66.29;90130.75;2034518;70;20160;-72
2024/03/27 03:50:57;;;;;;;5.13;2.30;;;;;;;5.93;66.14;90112.47;2031127;70;20139;-73
2024/03/27 03:53:22;;;;;;;6.47;3.97;;;;;;;5.74;65.48;90060.13;2034584;70;20692;-73
2024/03/27 03:55:48;;;;;;;6.03;4.40;;;;;;;5.96;66.06;90104.91;2034588;70;20144;-74
2024/03/27 03:58:15;;;;;;;9.68;4.25;;;;;;;6.01;65.44;90095.28;2034356;70;20152;-73
2024/03/27 04:00:41;;;;;;;5.45;2.63;;;;;;;5.98;65.33;90093.78;2034645;70;20144;-73
2024/03/27 04:03:06;;;;;;;5.28;3.30;;;;;;;5.57;67.10;90097.88;2031049;70;20175;-72
2024/03/27 04:05:32;;;;;;;5.57;2.50;;;;;;;5.88;65.27;90077.38;2034649;70;20203;-72
2024/03/27 04:07:58;;;;;;;4.15;2.85;;;;;;;5.89;66.44;90086.47;2034648;70;20631;-73
2024/03/27 04:10:24;;;;;;;4.57;2.90;;;;;;;5.85;65.76;90082.16;2034516;70;20517;-73
2024/03/27 04:12:49;;;;;;;6.20;2.47;;;;;;;5.92;65.65;90077.53;2034363;70;20156;-73
2024/03/27 04:15:15;;;;;;;4.57;2.72;;;;;;;5.94;65.16;90063.63;2034639;70;20675;-73
2024/03/27 04:17:41;;;;;;;3.72;1.30;;;;;;;5.89;65.25;90030.63;2034736;70;20136;-73
2024/03/27 04:20:10;;;;;;;2.60;1.70;;;;;;;5.45;67.87;90047.19;2034718;70;20175;-73
2024/03/27 04:22:36;;;;;;;3.63;1.90;;;;;;;5.74;66.65;90048.94;2034687;70;20168;-73
2024/03/27 04:25:03;;;;;;;5.15;2.45;;;;;;;5.79;66.08;90053.31;2034730;70;20150;-73
2024/03/27 04:27:29;;;;;;;4.80;2.38;;;;;;;5.60;65.80;90049.88;2034569;70;20153;-73
2024/03/27 04:29:56;;;;;;;4.13;2.70;;;;;;;5.73;66.14;90034.28;2034378;70;20156;-72
2024/03/27 04:32:22;;;;;;;7.47;4.28;;;;;;;5.75;66.12;90019.69;2034786;70;20577;-73
2024/03/27 04:34:48;;;;;;;12.65;6.15;;;;;;;5.77;65.97;90012.09;2034977;70;20188;-74
2024/03/27 04:37:13;;;;;;;9.68;5.75;;;;;;;5.51;66.89;90005.59;2035329;70;20271;-73
2024/03/27 04:39:41;;;;;;;12.45;5.80;;;;;;;5.70;65.93;90018.81;2035177;70;20676;-74
2024/03/27 04:42:10;;;;;;;4.85;3.25;;;;;;;5.63;66.51;90024.81;2035279;70;20529;-74
2024/03/27 04:44:38;;;;;;;5.90;2.63;;;;;;;5.70;65.50;90013.22;2035272;70;20140;-72
2024/03/27 04:47:04;;;;;;;7.68;2.83;;;;;;;5.20;68.08;90010.06;2035105;70;20202;-73
2024/03/27 04:49:29;;;;;;;10.20;5.38;;;;;;;5.55;66.99;90008.53;2035328;70;20192;-73
2024/03/27 04:51:55;;;;;;;34.50;17.45;;;;;;;5.49;66.51;90006.22;2035521;70;20283;-74
2024/03/27 04:54:20;;;;;;;25.48;13.93;;;;;;;5.55;66.72;90002.94;2035456;70;20148;-74
2024/03/27 04:56:46;;;;;;;14.90;7.65;;;;;;;5.64;65.22;90026.97;2035563;70;20148;-74
2024/03/27 04:59:11;;;;;;;6.63;3.42;;;;;;;5.67;65.78;90003.34;2035329;70;20182;-74
2024/03/27 05:01:37;;;;;;;5.32;2.20;;;;;;;5.67;66.09;89992.19;2035249;70;20492;-74
2024/03/27 05:04:03;;;;;;;39.05;18.77;;;;;;;5.09;67.94;89999.91;2035347;70;20588;-74
2024/03/27 05:06:28;;;;;;;16.08;8.35;;;;;;;5.32;67.29;89991.00;2035329;70;20150;-74
2024/03/27 05:08:54;;;;;;;10.43;5.78;;;;;;;5.10;68.11;89998.53;2035252;70;20179;-71
2024/03/27 05:11:20;;;;;;;28.05;9.50;;;;;;;5.16;68.29;90001.53;2035454;70;20168;-72
2024/03/27 05:13:45;;;;;;;15.40;7.20;;;;;;;5.38;67.42;89998.13;2031672;70;20240;-72
2024/03/27 05:16:12;;;;;;;13.35;7.15;;;;;;;5.46;66.73;89993.56;2035274;70;20140;-73
2024/03/27 05:18:40;;;;;;;14.75;7.40;;;;;;;5.39;67.48;90005.84;2034721;70;20601;-72
2024/03/27 05:21:08;;;;;;;15.80;7.40;;;;;;;5.42;66.61;89979.47;2031754;70;20239;-73
2024/03/27 05:23:36;;;;;;;13.32;6.90;;;;;;;5.54;66.16;89985.50;2035328;70;20220;-74
2024/03/27 05:26:03;;;;;;;9.38;5.45;;;;;;;5.65;66.06;89994.91;2035325;70;20198;-73
2024/03/27 05:28:29;;;;;;;12.32;5.20;;;;;;;5.51;66.74;89970.03;2035171;70;20168;-73
2024/03/27 05:30:55;;;;;;;8.55;4.78;;;;;;;5.14;67.73;89945.72;2035181;70;20163;-73
2024/03/27 05:33:20;;;;;;;9.43;4.82;;;;;;;5.21;68.72;89955.72;2035393;70;20501;-73
2024/03/27 05:35:46;;;;;;;11.82;4.60;;;;;;;5.49;67.67;89969.22;2034924;70;20191;-72
2024/03/27 05:38:13;;;;;;;7.32;4.07;;;;;;;5.62;66.96;89954.34;2035139;70;20624;-74
2024/03/27 05:40:38;;;;;;;7.65;4.00;;;;;;;5.77;66.17;89941.56;2034818;70;20640;-74
2024/03/27 05:43:04;;;;;;;6.72;3.88;;;;;;;5.71;66.33;89949.75;2034965;70;20168;-73
2024/03/27 05:45:29;;;;;;;6.32;4.10;;;;;;;4.99;69.27;89954.91;2035375;70;20148;-73
2024/03/27 05:47:55;;;;;;;7.30;4.05;;;;;;;5.46;68.11;89954.50;2035020;70;20160;-74
2024/03/27 05:50:21;;;;;;;8.30;4.00;;;;;;;5.69;67.16;89958.06;2034835;70;20147;-74
2024/03/27 05:52:46;;;;;;;12.00;4.38;;;;;;;4.92;70.46;89970.69;2034999;70;20151;-74
2024/03/27 05:55:12;;;;;;;5.95;4.18;;;;;;;5.48;68.72;89951.06;2035068;70;20251;-74
2024/03/27 05:57:38;;;;;;;6.72;3.60;;;;;;;5.61;68.54;89925.00;2034839;70;20612;-74
2024/03/27 06:00:08;;;;;;;8.00;3.53;;;;;;;5.12;70.11;89931.69;2034753;70;20152;-73
2024/03/27 06:02:38;;;;;;;6.75;3.17;;;;;;;5.53;68.41;89938.69;2034944;70;20162;-74
2024/03/27 06:05:04;;;;;;;5.28;2.97;;;;;;;5.56;68.32;89945.78;2034859;70;20148;-75
2024/03/27 06:07:30;;;;;;;6.53;3.10;;;;;;;5.58;67.54;89918.63;2031199;70;20204;-74
2024/03/27 06:09:56;;;;;;;5.78;2.95;;;;;;;5.88;67.24;89929.41;2034871;70;20741;-73
2024/03/27 06:12:22;;;;;;;6.18;3.10;;;;;;;5.47;68.54;89928.03;2034898;70;20156;-74
2024/03/27 06:14:48;;;;;;;6.70;3.30;;;;;;;5.57;67.47;89888.59;2034569;70;20259;-72
2024/03/27 06:17:13;;;;;;;5.75;3.58;;;;;;;5.97;66.51;89908.06;2034832;70;20160;-73
2024/03/27 06:19:39;;;;;;;10.57;3.83;;;;;;;5.83;66.90;89897.84;2031136;70;20593;-74
2024/03/27 06:22:04;;;;;;;6.95;3.35;;;;;;;6.11;66.68;89903.66;2034713;70;20152;-76
2024/03/27 06:24:30;;;;;;;5.63;2.72;;;;;;;6.19;66.46;89894.13;2034771;70;20215;-73
2024/03/27 06:26:56;;;;;;;6.55;2.88;;;;;;;6.18;66.27;89893.38;2034840;70;20155;-74
2024/03/27 06:29:21;;;;;;;3.33;2.33;;;;;;;6.31;64.34;89897.97;2034563;70;20270;-74
2024/03/27 06:31:47;;;;;;;4.55;2.30;;;;;;;6.29;66.22;89883.97;2034891;70;20151;-74
2024/03/27 06:34:12;;;;;;;12.23;5.25;;;;;;;5.70;68.08;89915.56;2034731;70;20251;-74
2024/03/27 06:36:38;;;;;;;5.22;3.60;;;;;;;5.82;67.76;89920.84;2034737;70;20148;-74
2024/03/27 06:39:08;;;;;;;6.70;3.30;;;;;;;6.12;66.49;89918.31;2034554;70;20164;-74
2024/03/27 06:41:34;;;;;;;7.03;3.00;;;;;;;6.26;66.59;89910.41;2031495;70;20154;-73
2024/03/27 06:44:00;;;;;;;8.45;3.17;;;;;;;6.25;66.23;89903.38;2034850;70;20156;-74
2024/03/27 06:46:27;;;;;;;7.53;2.80;;;;;;;6.05;66.78;89903.47;2034852;70;20603;-74
2024/03/27 06:48:56;;;;;;;8.05;5.68;;;;;;;5.85;68.17;89900.69;2031353;70;20165;-73
2024/03/27 06:51:23;;;;;;;8.15;5.85;;;;;;;6.23;67.28;89894.22;2034836;70;20136;-75
2024/03/27 06:53:48;;;;;;;20.35;6.15;;;;;;;6.16;67.75;89896.13;2031120;70;20165;-73
2024/03/27 06:56:14;;;;;;;12.95;6.85;;;;;;;6.39;65.10;89882.84;2034562;70;20183;-74
2024/03/27 06:58:40;;;;;;;10.85;6.18;;;;;;;6.28;66.78;89865.06;2034795;70;20171;-74
2024/03/27 07:01:06;;;;;;;11.85;6.15;;;;;;;6.54;65.72;89877.03;2031233;70;20150;-73
2024/03/27 07:03:33;;;;;;;10.25;5.85;;;;;;;6.59;66.38;89858.28;2034959;70;20175;-73
2024/03/27 07:05:59;;;;;;;11.40;5.95;;;;;;;6.48;67.12;89854.50;2034843;70;20152;-75
2024/03/27 07:08:24;;;;;;;13.45;6.13;;;;;;;6.34;67.43;89871.53;2034536;70;20527;-74
2024/03/27 07:11:03;;;;;;;13.73;6.90;;;;;;;6.58;66.95;89837.31;2034623;70;20162;-74
2024/03/27 07:13:29;;;;;;;15.98;8.13;;;;;;;5.90;68.99;89859.66;2031055;70;20251;-75
2024/03/27 07:15:55;;;;;;;13.15;8.63;;;;;;;6.30;68.71;89829.50;2034921;70;20144;-75
2024/03/27 07:18:21;;;;;;;15.38;8.50;;;;;;;7.01;66.90;89835.69;2034742;70;20147;-77
2024/03/27 07:20:58;;;;;;;14.45;7.40;;;;;;;6.70;68.15;89853.72;2034752;70;20184;-75
2024/03/27 07:23:24;;;;;;;17.20;8.60;;;;;;;6.79;67.77;89833.03;2034686;70;20148;-77
2024/03/27 07:25:50;;;;;;;13.20;8.25;;;;;;;7.06;66.75;89840.78;2034605;70;20151;-76
2024/03/27 07:28:16;;;;;;;14.02;6.85;;;;;;;7.23;66.41;89833.50;2034439;70;20140;-73
2024/03/27 07:30:41;;;;;;;15.77;6.95;;;;;;;7.31;66.41;89833.72;2034809;70;20164;-75
2024/03/27 07:33:08;;;;;;;11.63;5.70;;;;;;;7.62;64.71;89826.13;2034748;70;20148;-76
2024/03/27 07:35:34;;;;;;;11.50;5.90;;;;;;;7.55;65.10;89808.47;2034653;70;20144;-75
2024/03/27 07:37:59;;;;;;;13.65;5.53;;;;;;;7.56;64.75;89825.97;2034739;70;20201;-74
2024/03/27 07:40:26;;;;;;;14.75;4.05;;;;;;;7.94;65.01;89800.31;2034429;70;20144;-75
2024/03/27 07:42:53;;;;;;;5.10;2.00;;;;;;;8.27;61.97;89779.34;2034385;70;20188;-74
2024/03/27 07:45:19;;;;;;;9.75;4.25;;;;;;;8.13;63.92;89805.66;2030833;70;20481;-75
2024/03/27 07:47:45;;;;;;;21.42;6.72;;;;;;;8.49;62.67;89801.56;2034686;70;20155;-73
2024/03/27 07:50:11;;;;;;;8.20;4.68;;;;;;;8.69;61.70;89793.56;2030978;70;20183;-74
2024/03/27 07:52:37;;;;;;;7.55;3.20;;;;;;;8.97;59.93;89787.84;2034268;70;20284;-75
2024/03/27 07:55:03;;;;;;;8.68;4.85;;;;;;;8.99;61.05;89796.31;2034366;70;20197;-73
2024/03/27 07:57:28;;;;;;;7.38;4.15;;;;;;;8.93;61.69;89770.91;2034407;70;20198;-74
2024/03/27 07:59:54;;;;;;;8.77;3.90;;;;;;;8.93;61.86;89792.66;2030557;70;20183;-74
2024/03/27 08:02:20;;;;;;;7.07;3.20;;;;;;;8.95;62.00;89792.72;2034579;70;20145;-73
2024/03/27 08:04:45;;;;;;;7.70;3.10;;;;;;;9.09;60.95;89776.16;2034205;70;20152;-74
2024/03/27 08:07:11;;;;;;;9.00;2.60;;;;;;;9.44;62.48;89780.31;2034798;70;20148;-74
2024/03/27 08:09:36;;;;;;;5.15;1.77;;;;;;;9.44;59.20;89783.13;2034998;70;20509;-74
2024/03/27 08:12:02;;;;;;;2.45;1.40;;;;;;;9.75;58.41;89753.44;2035305;70;20176;-74
2024/03/27 08:14:28;;;;;;;3.70;1.50;;;;;;;9.86;60.12;89760.66;2031903;70;20179;-74
2024/03/27 08:16:53;;;;;;;9.07;3.90;;;;;;;9.65;58.99;89784.19;2035196;70;20139;-75
2024/03/27 08:19:19;;;;;;;8.27;3.30;;;;;;;9.86;59.11;89774.72;2034847;70;20148;-76
2024/03/27 08:21:44;;;;;;;5.53;3.25;;;;;;;10.55;59.53;89780.69;2034982;70;20150;-77
2024/03/27 08:24:10;;;;;;;4.43;2.30;;;;;;;10.88;58.07;89795.19;2035179;70;20298;-74
2024/03/27 08:26:36;;;;;;;4.35;2.47;;;;;;;11.17;56.20;89794.16;2035054;70;20565;-73
2024/03/27 08:29:02;;;;;;;5.70;2.20;;;;;;;10.85;58.34;89797.25;2034745;70;20152;-72
2024/03/27 08:31:28;;;;;;;4.13;2.72;;;;;;;11.63;58.63;89781.97;2035265;70;20217;-72
2024/03/27 08:33:54;;;;;;;3.83;2.30;;;;;;;11.90;58.46;89751.25;2035105;70;20155;-72
2024/03/27 08:36:19;;;;;;;3.72;1.60;;;;;;;12.55;55.89;89759.50;2035015;70;20140;-72
2024/03/27 08:38:45;;;;;;;6.07;2.40;;;;;;;13.57;53.47;89782.63;2034841;70;20572;-73
2024/03/27 08:41:10;;;;;;;5.63;2.40;;;;;;;13.14;53.13;89762.66;2035176;70;20148;-74
2024/03/27 08:43:36;;;;;;;4.63;2.38;;;;;;;13.18;52.56;89751.38;2034907;70;20291;-73
2024/03/27 08:46:02;;;;;;;4.25;1.85;;;;;;;14.22;52.03;89752.34;2035243;70;20128;-75
2024/03/27 08:48:28;;;;;;;5.72;1.70;;;;;;;14.61;48.58;89763.66;2035316;70;20649;-74
2024/03/27 08:50:53;;;;;;;4.07;2.38;;;;;;;15.03;50.13;89755.81;2034984;70;20589;-78
2024/03/27 08:53:19;;;;;;;3.25;1.50;;;;;;;15.28;47.89;89743.00;2031486;70;20231;-73
2024/03/27 08:55:44;;;;;;;4.15;1.80;;;;;;;15.12;48.07;89734.53;2035253;70;20558;-74
2024/03/27 08:58:10;;;;;;;2.88;1.38;;;;;;;16.19;47.22;89730.50;2034947;70;20190;-75
2024/03/27 09:00:37;;;;;;;2.58;1.30;;;;;;;16.65;47.03;89747.88;2034784;70;20171;-73
2024/03/27 09:03:04;;;;;;;3.30;1.10;;;;;;;17.12;47.54;89750.31;2034834;70;20596;-73
2024/03/27 09:05:31;;;;;;;7.07;1.60;;;;;;;17.10;45.41;89736.13;2035009;70;20240;-73
2024/03/27 09:07:56;;;;;;;2.72;1.38;;;;;;;18.43;43.76;89732.31;2034982;70;20170;-73
2024/03/27 09:10:22;;;;;;;2.17;0.98;;;;;;;19.08;42.63;89739.13;2035072;70;20244;-73
2024/03/27 09:12:47;;;;;;;2.25;0.70;;;;;;;19.22;41.29;89736.03;2034973;70;20590;-73
2024/03/27 09:15:13;;;;;;;4.00;2.00;;;;;;;19.01;40.58;89742.09;2035123;70;20156;-74
2024/03/27 09:17:39;;;;;;;2.20;1.05;;;;;;;19.24;41.62;89705.34;2034859;70;20220;-75
2024/03/27 09:20:05;;;;;;;1.10;0.70;;;;;;;19.92;40.24;89709.72;2035020;70;20485;-73
2024/03/27 09:22:32;;;;;;;2.25;0.80;;;;;;;20.47;38.76;89728.50;2034940;70;20148;-73
2024/03/27 09:24:58;;;;;;;4.65;1.05;;;;;;;20.86;37.76;89705.47;2031414;70;20144;-74
2024/03/27 09:27:24;;;;;;;3.50;0.85;;;;;;;20.73;38.25;89707.22;2034934;70;20140;-75
2024/03/27 09:29:53;;;;;;;4.43;0.80;;;;;;;21.16;36.09;89689.69;2034784;70;20254;-74
2024/03/27 09:32:19;;;;;;;2.75;0.70;;;;;;;20.94;33.78;89665.25;2035026;70;20160;-75
2024/03/27 09:34:46;;;;;;;2.40;0.80;;;;;;;19.62;37.32;89711.75;2035129;70;20137;-72
2024/03/27 09:37:12;;;;;;;3.95;0.80;;;;;;;21.12;37.85;89651.91;2034861;70;20154;-72
2024/03/27 09:39:38;;;;;;;1.50;0.85;;;;;;;21.38;36.58;89682.00;2034745;70;20270;-72
2024/03/27 09:42:04;;;;;;;3.90;0.80;;;;;;;21.92;35.25;89668.31;2035089;70;20582;-74
2024/03/27 09:44:30;;;;;;;1.90;0.40;;;;;;;21.92;32.43;89656.84;2034811;70;20167;-76
2024/03/27 09:47:00;;;;;;;17.17;1.02;;;;;;;22.14;30.45;89697.78;2031293;70;20150;-74
2024/03/27 09:49:27;;;;;;;3.40;0.40;;;;;;;21.19;30.01;89728.22;2034829;70;20243;-74
2024/03/27 09:51:57;;;;;;;6.68;0.52;;;;;;;21.87;30.03;89709.97;2035082;70;20271;-74
2024/03/27 09:54:25;;;;;;;3.45;0.40;;;;;;;22.78;28.31;89717.34;2034938;70;20227;-76
2024/03/27 09:56:53;;;;;;;3.63;0.50;;;;;;;22.45;27.88;89752.72;2034724;70;20179;-74
2024/03/27 09:59:19;;;;;;;1.35;0.38;;;;;;;21.65;29.26;89739.91;2034660;70;20155;-74
2024/03/27 10:01:44;;;;;;;3.95;0.40;;;;;;;22.17;27.97;89751.38;2035010;70;20140;-76
2024/03/27 10:04:10;;;;;;;3.47;0.30;;;;;;;22.24;28.41;89760.50;2034896;70;20148;-74
2024/03/27 10:06:36;;;;;;;1.77;0.50;;;;;;;23.03;28.31;89752.38;2035162;70;20231;-74
2024/03/27 10:09:03;;;;;;;2.75;0.50;;;;;;;22.90;27.84;89757.09;2035182;70;20203;-73
2024/03/27 10:11:29;;;;;;;2.28;0.50;;;;;;;21.85;28.86;89726.50;2035183;70;20216;-73
2024/03/27 10:13:55;;;;;;;2.47;0.30;;;;;;;24.03;27.30;89759.84;2031293;70;20224;-74
2024/03/27 10:16:20;;;;;;;2.65;0.40;;;;;;;24.48;26.30;89775.50;2034964;70;20156;-75
2024/03/27 10:18:46;;;;;;;1.13;0.52;;;;;;;23.57;27.96;89775.03;2034799;70;20148;-75
2024/03/27 10:21:12;;;;;;;1.80;0.40;;;;;;;24.43;27.18;89780.69;2035353;70;20634;-74
2024/03/27 10:23:38;;;;;;;2.00;0.38;;;;;;;25.19;27.53;89769.22;2035062;70;20148;-76
2024/03/27 10:26:04;;;;;;;0.57;0.30;;;;;;;25.05;25.54;89782.66;2034987;70;20486;-74
2024/03/27 10:28:39;;;;;;;1.90;0.38;;;;;;;26.24;25.31;89772.78;2034816;70;20151;-74
2024/03/27 10:31:05;;;;;;;2.30;0.40;;;;;;;25.38;25.19;89818.81;2034894;70;20168;-75
2024/03/27 10:33:31;;;;;;;1.42;0.28;;;;;;;23.99;26.84;89786.53;2034904;70;20167;-75
2024/03/27 10:35:58;;;;;;;0.70;0.30;;;;;;;24.57;27.16;89751.41;2035018;70;20639;-75
2024/03/27 10:38:28;;;;;;;2.00;0.30;;;;;;;23.02;27.68;89824.88;2035044;70;20182;-74
2024/03/27 10:40:57;;;;;;;2.67;0.20;;;;;;;26.79;25.88;89804.28;2035014;70;20152;-74
2024/03/27 10:43:28;;;;;;;1.52;0.30;;;;;;;26.10;25.85;89828.88;2031392;70;20148;-74
2024/03/27 10:45:55;;;;;;;1.08;0.30;;;;;;;26.15;25.90;89857.53;2034938;70;20175;-75
2024/03/27 10:48:22;;;;;;;1.08;0.40;;;;;;;25.40;26.21;89797.91;2035022;70;20156;-75
2024/03/27 10:50:47;;;;;;;1.63;0.40;;;;;;;26.51;25.69;89835.09;2034750;70;20171;-75
2024/03/27 10:53:14;;;;;;;3.35;0.40;;;;;;;25.24;26.19;89805.00;2034962;70;20236;-75
2024/03/27 10:55:40;;;;;;;2.05;0.52;;;;;;;25.29;26.17;89838.63;2031394;70;20170;-74
2024/03/27 10:58:08;;;;;;;2.20;0.30;;;;;;;25.20;27.01;89808.03;2034926;70;20152;-75
2024/03/27 11:00:34;;;;;;;2.03;0.40;;;;;;;24.15;27.70;89799.66;2031429;70;20198;-74
2024/03/27 11:02:59;;;;;;;0.70;0.50;;;;;;;24.37;27.74;89821.16;2035089;70;20155;-74
2024/03/27 11:05:29;;;;;;;0.52;0.40;;;;;;;23.39;28.75;89852.41;2034807;70;20144;-76
2024/03/27 11:07:58;;;;;;;0.77;0.30;;;;;;;25.00;28.54;89832.50;2034771;70;20597;-74
2024/03/27 11:10:25;;;;;;;1.85;0.30;;;;;;;26.78;27.62;89863.50;2034959;70;20593;-75
2024/03/27 11:12:51;;;;;;;0.90;0.38;;;;;;;24.52;28.23;89842.19;2034813;70;20180;-74
2024/03/27 11:15:17;;;;;;;3.55;0.35;;;;;;;24.20;29.30;89877.78;2034759;70;20594;-75
2024/03/27 11:17:57;;;;;;;2.60;0.45;;;;;;;26.02;28.32;89857.31;2034786;70;20167;-75
2024/03/27 11:20:24;;;;;;;1.95;0.20;;;;;;;26.19;27.28;89860.94;2031502;70;20155;-74
2024/03/27 11:22:55;;;;;;;0.57;0.20;;;;;;;24.14;28.57;89837.75;2034850;70;20124;-75
2024/03/27 11:25:22;;;;;;;1.30;0.30;;;;;;;22.69;30.77;89845.91;2031651;70;20605;-74
2024/03/27 11:27:48;;;;;;;0.65;0.30;;;;;;;24.32;29.60;89826.31;2034524;70;20267;-75
2024/03/27 11:30:18;;;;;;;1.98;0.45;;;;;;;25.66;28.37;89840.03;2034540;70;20140;-75
2024/03/27 11:32:45;;;;;;;1.60;0.38;;;;;;;25.67;27.85;89823.47;2034847;70;20164;-75
2024/03/27 11:35:14;;;;;;;2.15;0.40;;;;;;;25.53;28.06;89853.53;2034827;70;20148;-76
2024/03/27 11:37:40;;;;;;;0.88;0.40;;;;;;;24.02;29.14;89838.91;2034848;70;20634;-74
2024/03/27 11:40:08;;;;;;;0.47;0.25;;;;;;;23.58;29.78;89842.44;2034678;70;20227;-74
2024/03/27 11:42:38;;;;;;;0.77;0.20;;;;;;;25.42;27.99;89878.44;2034769;70;20243;-74
2024/03/27 11:45:05;;;;;;;0.30;0.20;;;;;;;26.07;28.50;89856.38;2034999;70;20182;-74
2024/03/27 11:47:31;;;;;;;1.60;0.30;;;;;;;28.20;27.06;89827.25;2031378;70;20171;-75
2024/03/27 11:49:57;;;;;;;0.52;0.10;;;;;;;22.81;30.46;89793.91;2031748;70;20136;-74
2024/03/27 11:52:24;;;;;;;1.95;0.25;;;;;;;27.75;28.37;89837.44;2035204;70;20623;-75
2024/03/27 11:54:56;;;;;;;0.15;0.10;;;;;;;25.86;29.18;89829.88;2035551;70;20148;-74
2024/03/27 11:57:22;;;;;;;0.63;0.10;;;;;;;24.46;29.81;89807.19;2035195;70;20148;-75
2024/03/27 11:59:49;;;;;;;0.45;0.17;;;;;;;24.75;29.10;89804.69;2031685;70;20144;-74
2024/03/27 12:02:15;;;;;;;0.47;0.10;;;;;;;25.62;28.66;89805.66;2031650;70;20300;-74
2024/03/27 12:04:41;;;;;;;0.55;0.10;;;;;;;24.73;28.64;89799.00;2034890;70;20291;-74
2024/03/27 12:07:07;;;;;;;1.77;0.43;;;;;;;23.29;30.93;89790.31;2035126;70;20151;-74
2024/03/27 12:09:37;;;;;;;0.77;0.40;;;;;;;25.07;28.80;89814.28;2035200;70;20242;-75
2024/03/27 12:12:03;;;;;;;0.30;0.30;;;;;;;23.93;29.87;89781.00;2035208;70;20159;-75
2024/03/27 12:14:28;;;;;;;0.63;0.32;;;;;;;25.17;28.73;89787.28;2035192;70;20203;-74
2024/03/27 12:16:55;;;;;;;0.30;0.30;;;;;;;23.57;30.33;89766.41;2035219;70;20191;-74
2024/03/27 12:19:21;;;;;;;0.95;0.45;;;;;;;21.86;32.73;89785.88;2035086;70;20148;-73
2024/03/27 12:21:47;;;;;;;1.38;0.00;;;;;;;20.87;34.35;89755.47;2034801;70;20537;-72
2024/03/27 12:24:14;;;;;;;0.20;0.20;;;;;;;21.50;32.64;89759.63;2035209;70;20633;-75
2024/03/27 12:26:41;;;;;;;0.20;0.20;;;;;;;24.63;29.69;89776.38;2035291;70;20148;-75
2024/03/27 12:29:07;;;;;;;0.25;0.25;;;;;;;23.06;31.73;89801.81;2034894;70;20597;-75
2024/03/27 12:31:33;;;;;;;0.20;0.20;;;;;;;24.82;30.56;89776.38;2035187;70;20176;-76
2024/03/27 12:33:59;;;;;;;0.45;0.15;;;;;;;25.41;28.17;89771.19;2035176;70;20323;-74
2024/03/27 12:36:24;;;;;;;2.38;0.30;;;;;;;24.76;29.65;89770.84;2035165;70;20187;-75
2024/03/27 12:38:50;;;;;;;2.85;0.13;;;;;;;28.96;25.83;89774.94;2034898;70;20167;-75
2024/03/27 12:41:16;;;;;;;0.60;0.30;;;;;;;23.40;30.92;89788.50;2035294;70;20272;-75
2024/03/27 12:43:42;;;;;;;0.85;0.30;;;;;;;27.08;27.47;89787.13;2035229;70;20175;-74
2024/03/27 12:46:07;;;;;;;0.20;0.20;;;;;;;24.96;28.72;89783.75;2035129;70;20146;-74
2024/03/27 12:48:34;;;;;;;0.17;0.10;;;;;;;31.21;24.61;89773.63;2035259;70;20276;-74
2024/03/27 12:51:00;;;;;;;0.10;0.10;;;;;;;31.88;23.10;89770.09;2035229;70;20235;-75
2024/03/27 12:53:26;;;;;;;0.68;0.10;;;;;;;32.63;23.09;89764.44;2035050;70;20152;-75
2024/03/27 12:55:51;;;;;;;0.10;0.10;;;;;;;28.72;25.22;89773.28;2035180;70;20590;-74
2024/03/27 12:58:17;;;;;;;0.00;0.00;;;;;;;33.79;22.22;89790.66;2035066;70;20179;-75
2024/03/27 13:00:45;;;;;;;0.20;0.10;;;;;;;32.69;22.09;89788.84;2035235;70;20628;-73
2024/03/27 13:03:11;;;;;;;0.10;0.00;;;;;;;26.30;26.77;89797.78;2035298;70;20156;-76
2024/03/27 13:05:38;;;;;;;0.10;0.10;;;;;;;26.43;27.69;89783.53;2035170;70;20132;-77
2024/03/27 13:08:04;;;;;;;0.00;0.00;;;;;;;26.11;27.79;89800.75;2035203;70;20171;-76
2024/03/27 13:10:32;;;;;;;0.52;0.00;;;;;;;22.72;31.08;89815.69;2034996;70;20577;-76
2024/03/27 13:12:59;;;;;;;1.00;0.10;;;;;;;21.60;32.70;89793.00;2035081;70;20148;-74
2024/03/27 13:15:25;;;;;;;0.35;0.10;;;;;;;20.70;34.42;89792.28;2035387;70;20542;-74
2024/03/27 13:17:51;;;;;;;0.10;0.00;;;;;;;20.42;34.47;89813.59;2035256;70;20251;-75
2024/03/27 13:20:17;;;;;;;0.00;0.00;;;;;;;25.38;29.85;89827.47;2034996;70;20460;-75
2024/03/27 13:22:42;;;;;;;0.13;0.10;;;;;;;23.51;31.75;89826.91;2031433;70;20152;-76
2024/03/27 13:25:08;;;;;;;1.55;0.10;;;;;;;21.27;34.26;89824.56;2034824;70;20609;-74
2024/03/27 13:27:34;;;;;;;0.00;0.00;;;;;;;20.97;34.24;89848.84;2035103;70;20178;-74
2024/03/27 13:30:01;;;;;;;0.25;0.10;;;;;;;21.14;34.37;89841.31;2034784;70;20140;-73
2024/03/27 13:32:30;;;;;;;0.50;0.15;;;;;;;22.38;33.12;89820.28;2034870;70;20156;-75
2024/03/27 13:34:56;;;;;;;0.00;0.00;;;;;;;20.48;34.99;89850.66;2035078;70;20156;-75
2024/03/27 13:37:22;;;;;;;1.67;0.10;;;;;;;20.61;35.68;89842.50;2034924;70;20152;-75
2024/03/27 13:39:47;;;;;;;0.32;0.20;;;;;;;18.84;37.89;89840.69;2031373;70;20164;-76
2024/03/27 13:42:13;;;;;;;0.32;0.25;;;;;;;18.97;38.77;89852.59;2034819;70;20167;-78
2024/03/27 13:44:39;;;;;;;0.10;0.10;;;;;;;19.57;38.07;89823.81;2034946;70;20162;-75
2024/03/27 13:47:04;;;;;;;1.55;0.13;;;;;;;18.34;39.73;89839.22;2035131;70;20200;-75
2024/03/27 13:49:30;;;;;;;0.10;0.10;;;;;;;18.58;39.50;89836.03;2035049;70;20151;-73
2024/03/27 13:51:55;;;;;;;0.75;0.10;;;;;;;18.55;40.38;89868.84;2034959;70;20230;-72
2024/03/27 13:54:21;;;;;;;0.52;0.10;;;;;;;17.75;41.25;89866.97;2035115;70;20147;-72
2024/03/27 13:56:46;;;;;;;0.88;0.10;;;;;;;17.41;42.74;89855.88;2035018;70;20350;-73
2024/03/27 13:59:12;;;;;;;0.95;0.17;;;;;;;18.18;41.51;89866.47;2035173;70;20152;-72